Time;durP1;ratioP1;P1;durP2;ratioP2;P2;SDS_P1;SDS_P2;PMS_P1;PMS_P2;Temp;Humidity;BMP_temperature;BMP_pressure;BME280_temperature;BME280_humidity;BME280_pressure;Samples;Min_cycle;Max_cycle;Signal;HPM_P1;HPM_P2
2023/01/02 00:01:44;;;;;;;5.55;3.10;;;;;;;;;;5075991;28;20390;-68
2023/01/02 00:04:10;;;;;;;7.55;3.15;;;;;;;;;;5074975;28;20480;-71
2023/01/02 00:06:36;;;;;;;4.93;2.70;;;;;;;;;;5075032;28;20072;-68
2023/01/02 00:09:03;;;;;;;6.55;3.05;;;;;;;;;;5073095;28;20037;-68
2023/01/02 00:11:29;;;;;;;8.48;3.53;;;16.40;98.80;;;;;;5073808;28;20052;-69
2023/01/02 00:13:55;;;;;;;6.10;2.55;;;16.50;98.90;;;;;;5074409;28;20041;-70
2023/01/02 00:16:20;;;;;;;6.88;2.90;;;16.50;98.90;;;;;;5077471;28;20036;-70
2023/01/02 00:18:46;;;;;;;7.57;3.30;;;16.40;99.00;;;;;;5084904;28;20041;-67
2023/01/02 00:21:12;;;;;;;8.70;2.92;;;16.70;98.90;;;;;;5073756;28;20040;-70
2023/01/02 00:23:38;;;;;;;7.38;3.03;;;16.30;98.80;;;;;;5065179;28;20047;-70
2023/01/02 00:26:04;;;;;;;6.38;2.88;;;16.40;98.90;;;;;;5078448;28;20063;-70
2023/01/02 00:28:30;;;;;;;7.28;2.83;;;16.50;98.80;;;;;;5067859;28;20056;-69
2023/01/02 00:30:56;;;;;;;7.40;2.80;;;16.50;98.90;;;;;;5074259;28;20536;-65
2023/01/02 00:33:22;;;;;;;7.13;3.33;;;16.50;98.80;;;;;;5085300;28;20146;-66
2023/01/02 00:35:48;;;;;;;7.03;3.00;;;16.50;98.80;;;;;;5076762;28;20047;-69
2023/01/02 00:38:14;;;;;;;5.95;2.78;;;16.50;98.80;;;;;;5091647;28;20047;-66
2023/01/02 00:40:40;;;;;;;5.97;2.70;;;16.40;98.80;;;;;;5073886;28;20131;-62
2023/01/02 00:43:06;;;;;;;8.95;3.25;;;16.70;98.80;;;;;;5080498;28;20044;-60
2023/01/02 00:45:33;;;;;;;6.38;3.28;;;16.40;98.70;;;;;;5044902;28;20050;-71
2023/01/02 00:47:59;;;;;;;6.72;3.05;;;;;;;;;;5085601;28;20073;-62
2023/01/02 00:50:25;;;;;;;6.47;3.38;;;16.70;98.90;;;;;;5064189;28;20059;-62
2023/01/02 00:52:51;;;;;;;5.97;3.20;;;16.40;98.80;;;;;;5086085;28;20033;-64
2023/01/02 00:55:16;;;;;;;6.32;3.00;;;16.60;98.90;;;;;;5073196;28;20047;-65
2023/01/02 00:57:42;;;;;;;5.80;2.80;;;16.60;98.80;;;;;;5072406;28;20397;-65
2023/01/02 01:00:08;;;;;;;8.65;3.45;;;16.40;98.80;;;;;;5079274;28;20036;-69
2023/01/02 01:02:34;;;;;;;6.05;3.20;;;16.60;98.80;;;;;;5079661;28;20055;-60
2023/01/02 01:05:00;;;;;;;6.10;3.08;;;16.70;98.80;;;;;;5082901;28;20036;-68
2023/01/02 01:07:26;;;;;;;5.63;3.13;;;;;;;;;;5093800;28;20044;-71
2023/01/02 01:09:53;;;;;;;6.30;3.20;;;;;;;;;;5068548;28;20052;-64
2023/01/02 01:12:19;;;;;;;7.78;3.17;;;;;;;;;;5079843;28;20040;-69
2023/01/02 01:14:45;;;;;;;5.88;3.20;;;;;;;;;;5073516;28;20432;-69
2023/01/02 01:17:11;;;;;;;6.10;3.17;;;16.50;98.80;;;;;;5091518;28;20055;-69
2023/01/02 01:19:37;;;;;;;6.07;3.28;;;16.40;98.70;;;;;;5077163;28;20040;-70
2023/01/02 01:22:03;;;;;;;7.90;3.63;;;16.60;98.80;;;;;;5079005;28;20091;-67
2023/01/02 01:24:29;;;;;;;5.93;3.20;;;16.40;98.80;;;;;;5073050;28;20052;-71
2023/01/02 01:26:54;;;;;;;6.75;3.60;;;16.40;99.10;;;;;;5080483;28;20048;-70
2023/01/02 01:29:20;;;;;;;6.60;3.33;;;16.60;98.80;;;;;;5093464;28;20063;-71
2023/01/02 01:31:46;;;;;;;7.47;3.50;;;16.40;98.70;;;;;;5081055;28;20056;-67
2023/01/02 01:34:12;;;;;;;8.18;4.05;;;16.60;98.80;;;;;;5072533;28;20040;-71
2023/01/02 01:36:38;;;;;;;7.25;3.67;;;16.50;97.60;;;;;;5087347;28;20151;-69
2023/01/02 01:39:04;;;;;;;5.97;3.50;;;;;;;;;;5093341;28;20070;-70
2023/01/02 01:41:30;;;;;;;7.60;3.75;;;;;;;;;;5084286;28;20075;-73
2023/01/02 01:44:00;;;;;;;7.45;4.07;;;16.40;96.60;;;;;;5090811;28;20044;-73
2023/01/02 01:46:34;;;;;;;8.18;4.32;;;16.60;97.40;;;;;;5092192;28;20048;-70
2023/01/02 01:49:19;;;;;;;8.23;4.30;;;16.40;97.30;;;;;;5070611;28;20043;-66
2023/01/02 01:51:56;;;;;;;7.10;3.97;;;16.40;96.60;;;;;;5075418;28;20051;-65
2023/01/02 01:54:30;;;;;;;7.05;4.30;;;16.40;97.60;;;;;;5066974;28;20435;-70
2023/01/02 01:56:58;;;;;;;8.05;4.50;;;16.40;98.70;;;;;;5060125;28;20170;-65
2023/01/02 01:59:24;;;;;;;7.93;4.40;;;16.20;98.80;;;;;;5042547;28;20485;-60
2023/01/02 02:01:50;;;;;;;6.60;4.18;;;16.30;98.70;;;;;;5076314;28;20037;-69
2023/01/02 02:04:16;;;;;;;7.45;4.63;;;;;;;;;;5051290;28;20051;-72
2023/01/02 02:06:43;;;;;;;8.57;4.38;;;16.10;98.70;;;;;;5066711;28;20119;-69
2023/01/02 02:09:15;;;;;;;7.05;4.53;;;16.50;98.80;;;;;;5060729;28;20122;-65
2023/01/02 02:11:41;;;;;;;7.63;4.80;;;16.50;97.60;;;;;;5087014;28;20044;-60
2023/01/02 02:14:07;;;;;;;9.10;4.97;;;16.70;98.80;;;;;;5047939;28;20471;-70
2023/01/02 02:16:47;;;;;;;8.20;5.20;;;16.50;98.90;;;;;;5058466;28;20087;-69
2023/01/02 02:19:31;;;;;;;7.95;5.03;;;16.20;97.00;;;;;;5059126;28;20386;-69
2023/01/02 02:22:00;;;;;;;8.43;4.95;;;;;;;;;;5074282;28;20052;-63
2023/01/02 02:24:35;;;;;;;8.38;5.50;;;16.50;97.60;;;;;;5078392;28;20032;-62
2023/01/02 02:27:08;;;;;;;11.50;5.80;;;16.50;98.80;;;;;;5077044;28;20051;-68
2023/01/02 02:29:57;;;;;;;8.90;4.88;;;16.40;98.00;;;;;;5075959;28;20052;-65
2023/01/02 02:32:48;;;;;;;9.93;5.43;;;16.40;97.60;;;;;;5068906;28;20044;-61
2023/01/02 02:35:23;;;;;;;8.85;4.85;;;;;;;;;;5066229;28;20049;-62
2023/01/02 02:37:54;;;;;;;11.63;5.35;;;16.60;98.90;;;;;;5076005;28;20401;-62
2023/01/02 02:40:57;;;;;;;10.82;5.55;;;16.50;97.00;;;;;;5065397;28;20040;-71
2023/01/02 02:43:29;;;;;;;8.60;5.57;;;16.30;98.80;;;;;;5056745;28;20107;-70
2023/01/02 02:46:27;;;;;;;9.80;5.78;;;16.60;98.90;;;;;;5081820;28;20037;-69
2023/01/02 02:48:53;;;;;;;7.80;5.47;;;16.50;97.80;;;;;;4974604;28;20063;-69
2023/01/02 02:51:25;;;;;;;11.32;5.50;;;;;;;;;;4984713;28;20052;-64
2023/01/02 02:53:55;;;;;;;8.73;5.90;;;16.30;98.90;;;;;;4975516;28;20082;-64
2023/01/02 02:56:21;;;;;;;9.35;5.57;;;;;;;;;;4969968;28;20081;-61
2023/01/02 02:58:47;;;;;;;10.48;5.35;;;16.50;99.00;;;;;;4977964;28;20156;-67
2023/01/02 03:01:16;;;;;;;10.00;5.43;;;16.20;98.90;;;;;;4982425;28;20074;-70
2023/01/02 03:03:42;;;;;;;10.13;5.60;;;16.50;98.90;;;;;;4991821;28;20065;-69
2023/01/02 03:06:20;;;;;;;10.32;5.57;;;16.40;98.90;;;;;;4987132;28;20050;-63
2023/01/02 03:09:17;;;;;;;11.20;5.30;;;16.50;99.00;;;;;;4994113;28;20053;-67
2023/01/02 03:12:04;;;;;;;9.27;5.82;;;16.40;98.90;;;;;;4987712;28;20061;-68
2023/01/02 03:14:35;;;;;;;9.43;5.20;;;;;;;;;;4974097;28;20057;-70
2023/01/02 03:17:03;;;;;;;9.63;5.85;;;16.30;98.90;;;;;;4992017;28;20065;-69
2023/01/02 03:19:35;;;;;;;10.07;5.53;;;16.40;97.50;;;;;;4975360;28;20046;-67
2023/01/02 03:22:20;;;;;;;11.53;5.30;;;16.40;99.00;;;;;;4993781;28;20053;-70
2023/01/02 03:24:47;;;;;;;11.85;5.47;;;16.70;99.10;;;;;;5010541;28;20064;-63
2023/01/02 03:27:16;;;;;;;8.80;4.85;;;16.40;97.60;;;;;;5041606;28;20053;-72
2023/01/02 03:29:45;;;;;;;9.93;5.18;;;16.40;99.00;;;;;;5075816;28;20048;-66
2023/01/02 03:32:21;;;;;;;12.95;5.47;;;16.60;99.00;;;;;;5056846;28;20530;-68
2023/01/02 03:34:47;;;;;;;10.43;5.40;;;16.60;99.10;;;;;;5059377;28;20062;-66
2023/01/02 03:37:28;;;;;;;11.15;5.38;;;16.80;99.10;;;;;;5040368;28;20048;-69
2023/01/02 03:39:55;;;;;;;8.90;5.22;;;16.40;99.10;;;;;;5041503;28;20044;-69
2023/01/02 03:42:38;;;;;;;10.93;5.40;;;16.40;97.70;;;;;;5055446;28;20470;-71
2023/01/02 03:45:08;;;;;;;9.13;5.53;;;16.10;99.00;;;;;;5080315;28;20060;-60
2023/01/02 03:47:42;;;;;;;10.13;5.35;;;16.40;99.20;;;;;;5094799;28;20052;-62
2023/01/02 03:50:10;;;;;;;9.52;5.55;;;;;;;;;;5078088;28;20078;-64
2023/01/02 03:52:36;;;;;;;9.93;5.15;;;16.30;99.10;;;;;;5079479;28;20062;-60
2023/01/02 03:55:02;;;;;;;8.98;4.95;;;;;;;;;;5040972;28;20048;-66
2023/01/02 03:57:49;;;;;;;11.75;5.45;;;16.40;99.10;;;;;;5074386;28;20048;-68
2023/01/02 04:00:16;;;;;;;9.73;5.43;;;;;;;;;;5084270;28;20397;-69
2023/01/02 04:02:47;;;;;;;8.98;5.10;;;16.40;99.10;;;;;;5083443;28;20036;-70
2023/01/02 04:05:16;;;;;;;11.07;5.63;;;16.50;99.20;;;;;;5074480;28;20145;-70
2023/01/02 04:07:59;;;;;;;9.23;5.25;;;16.10;97.00;;;;;;5079191;28;20059;-66
2023/01/02 04:10:25;;;;;;;7.80;4.88;;;16.60;99.10;;;;;;5067138;28;20036;-60
2023/01/02 04:12:53;;;;;;;12.05;5.07;;;16.50;99.20;;;;;;5056237;28;20041;-69
2023/01/02 04:15:21;;;;;;;12.27;5.18;;;16.50;99.20;;;;;;5039083;28;20565;-62
2023/01/02 04:18:01;;;;;;;9.90;5.18;;;16.30;99.10;;;;;;5055655;28;20037;-70
2023/01/02 04:20:30;;;;;;;9.35;5.15;;;16.50;97.70;;;;;;5055667;28;20072;-70
2023/01/02 04:23:09;;;;;;;8.60;4.95;;;16.50;99.10;;;;;;5048622;28;20045;-64
2023/01/02 04:25:40;;;;;;;10.35;4.90;;;16.30;99.20;;;;;;5074484;28;20047;-70
2023/01/02 04:28:11;;;;;;;8.98;4.65;;;16.50;99.20;;;;;;5065454;28;20083;-71
2023/01/02 04:30:40;;;;;;;9.20;4.70;;;16.50;99.20;;;;;;5074833;28;20137;-69
2023/01/02 04:33:06;;;;;;;12.48;5.05;;;16.50;99.20;;;;;;5071975;28;20167;-70
2023/01/02 04:35:32;;;;;;;9.38;4.35;;;16.70;99.30;;;;;;5038867;28;20052;-70
2023/01/02 04:38:05;;;;;;;9.32;5.05;;;16.60;97.90;;;;;;5039678;28;20166;-62
2023/01/02 04:40:35;;;;;;;;;;;;;;;;;;5069635;28;20054;-60
2023/01/02 04:43:01;;;;;;;8.20;4.93;;;16.40;99.20;;;;;;5081921;28;19916;-67
2023/01/02 04:45:26;;;;;;;8.02;4.57;;;16.40;99.30;;;;;;5073797;28;20123;-70
2023/01/02 04:47:52;;;;;;;8.65;4.65;;;16.30;99.20;;;;;;5087530;28;20063;-69
2023/01/02 04:50:18;;;;;;;8.95;4.30;;;16.50;99.30;;;;;;5093639;28;20047;-70
2023/01/02 04:52:44;;;;;;;9.15;5.35;;;16.50;98.10;;;;;;5077596;28;20032;-70
2023/01/02 04:55:10;;;;;;;7.97;4.10;;;16.30;99.50;;;;;;5073412;28;20135;-66
2023/01/02 04:57:36;;;;;;;10.48;4.28;;;16.20;99.20;;;;;;5075715;28;20127;-70
2023/01/02 05:00:04;;;;;;;9.20;4.15;;;16.50;99.30;;;;;;5082502;28;20128;-72
2023/01/02 05:02:34;;;;;;;9.25;4.72;;;16.60;99.30;;;;;;5078931;28;20046;-61
2023/01/02 05:04:59;;;;;;;8.10;4.38;;;16.20;99.20;;;;;;5094653;28;20362;-70
2023/01/02 05:07:25;;;;;;;8.93;4.18;;;16.60;99.20;;;;;;5084242;28;20040;-69
2023/01/02 05:09:51;;;;;;;8.38;4.10;;;16.70;99.30;;;;;;5093338;28;20046;-69
2023/01/02 05:12:17;;;;;;;8.60;4.25;;;16.60;99.30;;;;;;5085147;28;20539;-70
2023/01/02 05:14:43;;;;;;;7.82;3.90;;;;;;;;;;5078506;28;20048;-66
2023/01/02 05:17:09;;;;;;;9.68;4.53;;;16.20;99.40;;;;;;5074134;28;20049;-70
2023/01/02 05:19:34;;;;;;;8.48;4.07;;;16.30;98.10;;;;;;5073361;28;20105;-61
2023/01/02 05:24:44;;;;;;;9.73;4.20;;;16.60;98.10;;;;;;5080764;28;20397;-69
2023/01/02 05:27:10;;;;;;;7.60;4.10;;;16.70;99.50;;;;;;5097020;28;20040;-63
2023/01/02 05:29:35;;;;;;;7.93;4.25;;;16.80;99.30;;;;;;5092710;28;20044;-69
2023/01/02 05:32:01;;;;;;;7.45;4.32;;;16.70;99.30;;;;;;5060508;28;20045;-66
2023/01/02 05:34:27;;;;;;;8.00;3.55;;;16.40;99.30;;;;;;5080259;28;20047;-61
2023/01/02 05:36:53;;;;;;;9.98;4.55;;;16.40;99.20;;;;;;5075955;28;20119;-69
2023/01/02 05:39:18;;;;;;;8.07;4.05;;;16.30;99.20;;;;;;5094675;28;20052;-61
2023/01/02 05:41:45;;;;;;;8.18;3.90;;;;;;;;;;5091142;28;20680;-71
2023/01/02 05:44:11;;;;;;;9.05;4.07;;;16.60;98.00;;;;;;5054315;28;20064;-61
2023/01/02 05:46:37;;;;;;;8.52;4.00;;;16.60;99.40;;;;;;5094319;28;20160;-59
2023/01/02 05:49:04;;;;;;;8.80;4.20;;;16.40;99.40;;;;;;5097340;28;20437;-64
2023/01/02 05:51:30;;;;;;;7.97;3.92;;;;;;;;;;5063204;28;20114;-60
2023/01/02 05:53:56;;;;;;;9.02;4.10;;;16.60;99.40;;;;;;5077085;28;20045;-60
2023/01/02 05:56:22;;;;;;;7.05;4.13;;;16.60;99.40;;;;;;5085399;28;20071;-60
2023/01/02 05:58:48;;;;;;;7.07;3.80;;;16.50;98.30;;;;;;5097783;28;20040;-60
2023/01/02 06:01:16;;;;;;;7.35;4.00;;;16.80;98.90;;;;;;5089553;28;20040;-67
2023/01/02 06:03:49;;;;;;;8.00;3.95;;;16.50;99.30;;;;;;5086506;28;20045;-60
2023/01/02 06:06:15;;;;;;;6.57;3.72;;;16.60;99.30;;;;;;5078733;28;20048;-62
2023/01/02 06:08:41;;;;;;;8.43;3.60;;;;;;;;;;5062928;28;20445;-72
2023/01/02 06:11:07;;;;;;;9.93;4.00;;;16.50;99.30;;;;;;5076774;28;20036;-64
2023/01/02 06:13:34;;;;;;;8.98;4.18;;;16.60;99.30;;;;;;5078957;28;20045;-60
2023/01/02 06:16:01;;;;;;;7.70;4.07;;;;;;;;;;5084420;28;20051;-72
2023/01/02 06:18:27;;;;;;;9.05;3.95;;;;;;;;;;5086881;28;20492;-71
2023/01/02 06:21:01;;;;;;;7.43;4.07;;;16.20;99.20;;;;;;5064773;28;20068;-71
2023/01/02 06:23:27;;;;;;;6.43;3.50;;;16.60;99.40;;;;;;5051442;28;20059;-62
2023/01/02 06:25:53;;;;;;;8.48;4.10;;;16.60;99.30;;;;;;5079611;28;20052;-65
2023/01/02 06:28:19;;;;;;;8.38;3.80;;;;;;;;;;5078305;28;20040;-69
2023/01/02 06:30:48;;;;;;;11.35;3.85;;;;;;;;;;5081917;28;20044;-71
2023/01/02 06:33:14;;;;;;;8.77;3.47;;;16.70;99.40;;;;;;5085909;28;20039;-68
2023/01/02 06:35:40;;;;;;;8.63;4.40;;;;;;;;;;5085455;28;20370;-71
2023/01/02 06:38:06;;;;;;;8.82;3.88;;;;;;;;;;5083186;28;20066;-65
2023/01/02 06:40:32;;;;;;;6.47;3.50;;;;;;;;;;5083823;28;20087;-70
2023/01/02 06:42:58;;;;;;;7.65;3.58;;;16.60;99.50;;;;;;5083012;28;20032;-66
2023/01/02 06:45:24;;;;;;;7.63;3.42;;;;;;;;;;5082633;28;20071;-72
2023/01/02 06:47:59;;;;;;;6.72;3.30;;;;;;;;;;5082527;28;20036;-70
2023/01/02 06:50:25;;;;;;;6.63;3.45;;;16.60;99.40;;;;;;5067062;28;20558;-63
2023/01/02 06:52:51;;;;;;;8.85;3.53;;;16.60;99.50;;;;;;5085564;28;20036;-61
2023/01/02 06:55:17;;;;;;;5.88;3.10;;;;;;;;;;5086467;28;20701;-72
2023/01/02 06:57:43;;;;;;;6.40;3.63;;;16.60;99.40;;;;;;5090310;28;20039;-60
2023/01/02 07:00:10;;;;;;;6.93;3.15;;;;;;;;;;5088180;28;20036;-71
2023/01/02 07:02:35;;;;;;;7.78;3.58;;;16.60;99.40;;;;;;5089840;28;20122;-70
2023/01/02 07:05:01;;;;;;;5.97;3.28;;;16.70;99.40;;;;;;5093129;28;20180;-69
2023/01/02 07:07:28;;;;;;;5.60;2.97;;;;;;;;;;5091639;28;20036;-65
2023/01/02 07:09:55;;;;;;;6.07;3.17;;;;;;;;;;5086148;28;20489;-63
2023/01/02 07:12:21;;;;;;;6.00;2.90;;;16.60;99.30;;;;;;5089584;28;20051;-60
2023/01/02 07:14:47;;;;;;;7.10;3.00;;;;;;;;;;5092497;28;20035;-71
2023/01/02 07:17:13;;;;;;;7.00;3.00;;;16.90;99.50;;;;;;5072470;28;20040;-72
2023/01/02 07:19:40;;;;;;;6.13;3.00;;;;;;;;;;5081873;28;20047;-71
2023/01/02 07:22:06;;;;;;;6.97;3.10;;;16.70;99.50;;;;;;5071576;28;20044;-63
2023/01/02 07:24:31;;;;;;;5.35;2.72;;;16.70;99.50;;;;;;5087806;28;20081;-60
2023/01/02 07:26:58;;;;;;;5.95;2.78;;;;;;;;;;5075258;28;20043;-72
2023/01/02 07:29:24;;;;;;;7.50;3.13;;;;;;;;;;5089765;28;20039;-62
2023/01/02 07:31:50;;;;;;;6.05;2.97;;;16.70;99.40;;;;;;5084168;28;20044;-72
2023/01/02 07:34:16;;;;;;;5.80;2.88;;;;;;;;;;5089691;28;20032;-71
2023/01/02 07:36:45;;;;;;;6.13;2.75;;;16.40;99.40;;;;;;5091813;28;20077;-71
2023/01/02 07:39:12;;;;;;;5.68;2.55;;;16.80;99.50;;;;;;5068986;28;20124;-71
2023/01/02 07:41:38;;;;;;;6.95;2.80;;;16.70;99.50;;;;;;5091471;28;20108;-64
2023/01/02 07:44:05;;;;;;;4.55;2.47;;;;;;;;;;5090252;28;21493;-73
2023/01/02 07:46:31;;;;;;;6.32;2.58;;;16.80;99.70;;;;;;5090384;28;20044;-71
2023/01/02 07:48:58;;;;;;;4.85;2.22;;;;;;;;;;5084557;28;20490;-76
2023/01/02 07:51:24;;;;;;;5.35;2.58;;;16.80;99.50;;;;;;5091970;28;20058;-71
2023/01/02 07:53:51;;;;;;;4.47;2.40;;;;;;;;;;5086075;28;20090;-72
2023/01/02 07:56:17;;;;;;;5.88;2.60;;;;;;;;;;5084859;28;20082;-70
2023/01/02 07:58:43;;;;;;;5.95;2.67;;;16.60;98.60;;;;;;5077253;28;20089;-69
2023/01/02 08:01:11;;;;;;;5.50;2.28;;;17.00;99.60;;;;;;5081068;28;20106;-70
2023/01/02 08:03:38;;;;;;;6.45;2.40;;;;;;;;;;5071409;28;20052;-67
2023/01/02 08:06:04;;;;;;;4.50;2.15;;;16.90;99.50;;;;;;5069680;28;20497;-69
2023/01/02 08:08:31;;;;;;;4.70;2.20;;;17.00;98.10;;;;;;5080942;28;20032;-72
2023/01/02 08:10:57;;;;;;;5.20;2.13;;;16.80;98.30;;;;;;5101947;28;20124;-72
2023/01/02 08:13:23;;;;;;;3.67;1.88;;;16.80;99.70;;;;;;5108095;28;20486;-73
2023/01/02 08:15:49;;;;;;;5.82;2.60;;;16.80;99.70;;;;;;5104760;28;20051;-70
2023/01/02 08:18:16;;;;;;;4.05;2.15;;;;;;;;;;5063171;28;20043;-72
2023/01/02 08:20:42;;;;;;;5.20;2.00;;;;;;;;;;5094776;28;20052;-70
2023/01/02 08:23:09;;;;;;;3.83;1.92;;;;;;;;;;5085313;28;20049;-70
2023/01/02 08:25:36;;;;;;;5.13;2.10;;;16.90;99.70;;;;;;5101402;28;20156;-67
2023/01/02 08:28:05;;;;;;;4.78;1.95;;;16.80;97.80;;;;;;5079202;28;20417;-69
2023/01/02 08:30:32;;;;;;;7.95;2.30;;;17.00;99.80;;;;;;5083546;28;20526;-71
2023/01/02 08:32:59;;;;;;;4.85;1.80;;;17.10;99.90;;;;;;5103082;28;20039;-70
2023/01/02 08:35:26;;;;;;;5.30;1.70;;;16.70;99.40;;;;;;5101877;28;20047;-73
2023/01/02 08:37:52;;;;;;;4.65;1.98;;;16.80;99.90;;;;;;5102714;28;20436;-70
2023/01/02 08:40:18;;;;;;;5.85;1.95;;;16.60;99.80;;;;;;5099012;28;20119;-70
2023/01/02 08:42:44;;;;;;;4.22;1.80;;;17.00;99.90;;;;;;5103372;28;20035;-71
2023/01/02 08:45:10;;;;;;;4.22;1.85;;;17.10;99.90;;;;;;5079570;28;20039;-71
2023/01/02 08:47:37;;;;;;;6.72;2.13;;;;;;;;;;5099602;28;20036;-71
2023/01/02 08:50:03;;;;;;;4.50;1.80;;;17.00;99.80;;;;;;5104075;28;20519;-62
2023/01/02 08:52:29;;;;;;;4.95;1.80;;;16.90;99.70;;;;;;5087024;28;20040;-72
2023/01/02 08:54:55;;;;;;;3.72;1.70;;;17.00;99.70;;;;;;5094515;28;20544;-60
2023/01/02 08:57:21;;;;;;;4.38;1.85;;;;;;;;;;5096346;28;20381;-59
2023/01/02 08:59:47;;;;;;;4.13;1.67;;;17.20;99.50;;;;;;5097235;28;20111;-66
2023/01/02 09:02:13;;;;;;;5.32;1.70;;;;;;;;;;5101592;28;20445;-71
2023/01/02 09:04:40;;;;;;;4.15;1.83;;;17.00;99.50;;;;;;5094039;28;20046;-59
2023/01/02 09:07:06;;;;;;;3.58;1.40;;;;;;;;;;5076353;28;20126;-60
2023/01/02 09:09:32;;;;;;;5.20;1.38;;;;;;;;;;5082558;28;20051;-59
2023/01/02 09:11:59;;;;;;;4.47;1.70;;;16.90;99.10;;;;;;5088640;28;20122;-59
2023/01/02 09:14:25;;;;;;;5.30;1.73;;;17.10;99.60;;;;;;5087870;28;20393;-60
2023/01/02 09:16:51;;;;;;;4.88;1.60;;;17.00;99.60;;;;;;5091878;28;20043;-66
2023/01/02 09:19:19;;;;;;;3.55;1.58;;;;;;;;;;5089715;28;20067;-71
2023/01/02 09:21:47;;;;;;;4.90;2.08;;;16.80;99.00;;;;;;5096890;28;20056;-59
2023/01/02 09:24:13;;;;;;;4.82;1.38;;;17.10;99.60;;;;;;5100877;28;20373;-59
2023/01/02 09:26:41;;;;;;;4.57;2.10;;;16.60;99.70;;;;;;5099588;28;20564;-64
2023/01/02 09:29:07;;;;;;;6.93;1.80;;;17.00;99.20;;;;;;5104366;28;20052;-60
2023/01/02 09:31:33;;;;;;;6.57;1.90;;;16.90;99.70;;;;;;5103025;28;20388;-71
2023/01/02 09:33:59;;;;;;;4.88;1.60;;;;;;;;;;5087272;28;20035;-59
2023/01/02 09:36:26;;;;;;;3.15;1.33;;;;;;;;;;5092596;28;20067;-70
2023/01/02 09:38:56;;;;;;;3.42;1.55;;;17.00;99.80;;;;;;5079640;28;20513;-70
2023/01/02 09:41:49;;;;;;;4.97;1.35;;;16.80;98.30;;;;;;5088300;28;20043;-62
2023/01/02 09:44:46;;;;;;;4.78;1.30;;;17.00;98.40;;;;;;5052683;28;20048;-59
2023/01/02 09:47:30;;;;;;;5.32;1.58;;;;;;;;;;5090834;28;20037;-70
2023/01/02 09:50:00;;;;;;;5.53;1.60;;;;;;;;;;5077066;28;20106;-68
2023/01/02 09:52:46;;;;;;;9.80;2.00;;;17.10;99.60;;;;;;5053968;28;20040;-75
2023/01/02 09:55:18;;;;;;;3.85;1.70;;;17.00;97.60;;;;;;5073017;28;20041;-71
2023/01/02 09:58:17;;;;;;;5.18;1.80;;;17.20;98.10;;;;;;5090350;28;20040;-72
2023/01/02 10:00:43;;;;;;;7.07;1.73;;;17.20;99.40;;;;;;5066871;28;20401;-70
2023/01/02 10:03:20;;;;;;;6.82;1.67;;;17.20;98.00;;;;;;5041076;28;20036;-71
2023/01/02 10:06:08;;;;;;;6.22;1.85;;;17.20;97.50;;;;;;5064377;28;20037;-69
2023/01/02 10:08:35;;;;;;;6.38;1.52;;;;;;;;;;5066752;28;20036;-71
2023/01/02 10:11:10;;;;;;;5.30;1.58;;;;;;;;;;5093806;28;20160;-71
2023/01/02 10:13:58;;;;;;;4.20;1.40;;;17.10;97.10;;;;;;5091979;28;20032;-71
2023/01/02 10:16:26;;;;;;;5.55;1.60;;;;;;;;;;5097319;28;20143;-73
2023/01/02 10:18:53;;;;;;;6.25;1.52;;;;;;;;;;5096059;28;20044;-72
2023/01/02 10:21:40;;;;;;;5.60;1.83;;;17.30;97.80;;;;;;5063820;28;20059;-70
2023/01/02 10:24:09;;;;;;;5.03;1.55;;;;;;;;;;5095855;28;20050;-72
2023/01/02 10:26:36;;;;;;;6.28;1.70;;;17.00;97.20;;;;;;5067397;28;20043;-67
2023/01/02 10:29:17;;;;;;;7.53;1.98;;;;;;;;;;5087802;28;20044;-70
2023/01/02 10:31:48;;;;;;;7.07;2.25;;;17.00;98.90;;;;;;5082180;28;20140;-70
2023/01/02 10:34:19;;;;;;;7.43;2.30;;;17.20;97.70;;;;;;5046493;28;20118;-68
2023/01/02 10:36:46;;;;;;;4.95;1.70;;;17.00;98.90;;;;;;5088372;28;20075;-66
2023/01/02 10:39:20;;;;;;;8.52;2.38;;;17.30;97.60;;;;;;5087771;28;20032;-72
2023/01/02 10:41:49;;;;;;;6.38;1.67;;;17.10;98.60;;;;;;5074222;28;20037;-71
2023/01/02 10:44:21;;;;;;;4.10;1.65;;;;;;;;;;5079901;28;20460;-73
2023/01/02 10:46:47;;;;;;;6.03;1.60;;;;;;;;;;5095212;28;20048;-69
2023/01/02 10:49:14;;;;;;;5.15;1.70;;;;;;;;;;5100340;28;20050;-70
2023/01/02 10:51:44;;;;;;;4.28;1.30;;;17.10;96.60;;;;;;5099800;28;20036;-70
2023/01/02 10:54:10;;;;;;;5.75;1.52;;;17.20;98.00;;;;;;5084684;28;20036;-69
2023/01/02 10:56:37;;;;;;;2.92;1.23;;;17.10;97.60;;;;;;5097256;28;20512;-68
2023/01/02 10:59:04;;;;;;;3.75;1.25;;;;;;;;;;5095675;28;20073;-68
2023/01/02 11:01:30;;;;;;;5.10;1.50;;;17.10;98.00;;;;;;5090772;28;20091;-69
2023/01/02 11:03:58;;;;;;;4.35;1.27;;;17.10;98.10;;;;;;5063697;28;20496;-67
2023/01/02 11:06:26;;;;;;;3.13;1.20;;;17.10;98.00;;;;;;5091471;28;20033;-64
2023/01/02 11:09:03;;;;;;;4.25;1.30;;;16.80;96.60;;;;;;5088258;28;20039;-69
2023/01/02 11:11:34;;;;;;;4.93;1.55;;;;;;;;;;5078666;28;20401;-70
2023/01/02 11:14:09;;;;;;;3.50;1.30;;;17.20;96.80;;;;;;5098244;28;20052;-69
2023/01/02 11:16:43;;;;;;;6.07;1.52;;;;;;;;;;5100457;28;20423;-66
2023/01/02 11:19:19;;;;;;;4.43;1.38;;;17.00;96.80;;;;;;5102592;28;20062;-69
2023/01/02 11:21:47;;;;;;;4.80;1.58;;;16.90;98.10;;;;;;5077421;28;20126;-68
2023/01/02 11:24:18;;;;;;;4.20;1.27;;;17.00;96.60;;;;;;5072947;28;20048;-68
2023/01/02 11:26:45;;;;;;;6.13;1.10;;;16.90;97.50;;;;;;5085446;28;20040;-65
2023/01/02 11:29:30;;;;;;;4.88;1.33;;;17.10;96.50;;;;;;5085434;28;20040;-68
2023/01/02 11:31:58;;;;;;;2.75;1.10;;;16.90;98.10;;;;;;5067620;28;20115;-69
2023/01/02 11:34:29;;;;;;;2.28;0.90;;;17.20;96.90;;;;;;5065847;28;20051;-63
2023/01/02 11:37:10;;;;;;;2.80;1.20;;;16.80;96.30;;;;;;5067252;28;20048;-63
2023/01/02 11:39:37;;;;;;;2.20;0.95;;;17.10;98.10;;;;;;5065755;28;20473;-70
2023/01/02 11:45:02;;;;;;;2.63;0.90;;;;;;;;;;5100447;28;20093;-69
2023/01/02 11:47:41;;;;;;;4.22;1.30;;;17.30;97.00;;;;;;5103294;28;20040;-69
2023/01/02 11:50:12;;;;;;;2.25;1.05;;;17.10;98.00;;;;;;5064120;28;20041;-66
2023/01/02 11:53:04;;;;;;;2.15;0.90;;;17.10;96.70;;;;;;5082688;28;20036;-70
2023/01/02 11:55:45;;;;;;;2.72;1.30;;;17.10;96.10;;;;;;5087423;28;20118;-61
2023/01/02 11:58:12;;;;;;;3.45;1.38;;;;;;;;;;5105017;28;20385;-66
2023/01/02 12:00:41;;;;;;;2.78;1.10;;;17.20;98.10;;;;;;5103340;28;20047;-71
2023/01/02 12:03:14;;;;;;;4.75;0.95;;;17.10;98.00;;;;;;5085458;28;20074;-70
2023/01/02 12:05:54;;;;;;;2.83;1.00;;;17.00;96.70;;;;;;5078792;28;20051;-69
2023/01/02 12:08:34;;;;;;;1.35;0.73;;;17.00;96.60;;;;;;5064421;28;20041;-69
2023/01/02 12:11:23;;;;;;;1.85;1.08;;;17.20;98.10;;;;;;5100644;28;20051;-70
2023/01/02 12:13:49;;;;;;;2.42;0.93;;;;;;;;;;5084559;28;20044;-69
2023/01/02 12:16:24;;;;;;;2.97;1.02;;;16.90;96.50;;;;;;5115107;28;20118;-70
2023/01/02 12:19:14;;;;;;;2.15;1.00;;;17.10;97.90;;;;;;5092851;28;20036;-65
2023/01/02 12:21:52;;;;;;;2.80;0.95;;;17.00;97.30;;;;;;5061783;28;20048;-68
2023/01/02 12:24:29;;;;;;;2.95;1.00;;;17.20;97.60;;;;;;5098595;28;20064;-70
2023/01/02 12:27:09;;;;;;;2.75;0.90;;;;;;;;;;5098076;28;20040;-67
2023/01/02 12:29:48;;;;;;;9.68;2.15;;;;;;;;;;5084730;28;20071;-70
2023/01/02 12:32:37;;;;;;;8.98;1.50;;;17.00;96.50;;;;;;5087455;28;20054;-69
2023/01/02 12:35:08;;;;;;;5.75;1.30;;;17.20;97.90;;;;;;5091362;28;20045;-60
2023/01/02 12:37:41;;;;;;;5.13;1.35;;;;;;;;;;5106218;28;20059;-68
2023/01/02 12:40:33;;;;;;;10.55;1.73;;;16.80;97.80;;;;;;5076512;28;20165;-70
2023/01/02 12:43:35;;;;;;;4.57;1.42;;;17.20;95.80;;;;;;5094117;28;20048;-71
2023/01/02 12:46:04;;;;;;;5.00;1.48;;;;;;;;;;5093905;28;20050;-70
2023/01/02 12:48:48;;;;;;;5.05;1.13;;;17.00;95.70;;;;;;5073895;28;20040;-61
2023/01/02 12:51:36;;;;;;;5.15;1.25;;;17.00;97.80;;;;;;5073760;28;20048;-60
2023/01/02 12:54:05;;;;;;;3.55;1.30;;;;;;;;;;5073902;28;20045;-70
2023/01/02 12:56:37;;;;;;;4.90;1.50;;;17.00;97.80;;;;;;5064056;28;20454;-68
2023/01/02 12:59:21;;;;;;;7.22;1.33;;;16.90;97.80;;;;;;5073350;28;20078;-68
2023/01/02 13:01:46;;;;;;;3.78;1.13;;;17.20;97.90;;;;;;5074549;28;20048;-60
2023/01/02 13:04:17;;;;;;;3.88;1.00;;;17.00;97.90;;;;;;5073511;28;20082;-68
2023/01/02 13:06:49;;;;;;;4.45;1.17;;;17.00;97.80;;;;;;5073633;28;20116;-69
2023/01/02 13:09:35;;;;;;;5.05;1.25;;;16.80;97.80;;;;;;5055630;28;20055;-68
2023/01/02 13:12:24;;;;;;;5.72;1.30;;;16.80;97.80;;;;;;5058387;28;20047;-61
2023/01/02 13:15:11;;;;;;;6.13;1.33;;;17.00;96.60;;;;;;5067874;28;20054;-69
2023/01/02 13:17:49;;;;;;;4.35;1.52;;;16.80;97.80;;;;;;5094328;28;20419;-67
2023/01/02 13:20:45;;;;;;;5.10;1.40;;;17.00;97.80;;;;;;5093475;28;20460;-69
2023/01/02 13:23:11;;;;;;;3.00;1.10;;;16.90;96.60;;;;;;5093669;28;20094;-69
2023/01/02 13:25:41;;;;;;;3.67;1.08;;;16.90;96.50;;;;;;5093314;28;20056;-62
2023/01/02 13:28:08;;;;;;;3.05;1.35;;;17.10;98.00;;;;;;5049085;28;20045;-69
2023/01/02 13:30:34;;;;;;;5.55;1.00;;;;;;;;;;5050103;28;20123;-67
2023/01/02 13:33:28;;;;;;;2.80;1.13;;;16.80;96.50;;;;;;5057436;28;20066;-70
2023/01/02 13:35:55;;;;;;;4.03;1.50;;;16.90;97.70;;;;;;5044428;28;20428;-71